Airport Services

METAR/TAF »

TAF 23.10.2018

TAF EGTC 231359Z 2315/2318 29014KT 9999 FEW025 TEMPO 2315/2318 31018G28KT

METAR 23.10.2018

EGTC 231650Z 25008KT 9999 FEW025 13/09 Q1028

Airport Services

Cranfield Airport prides itself on offering the very highest standards of service and personal attention for its clients.

The facilities and services at Cranfield Airport are tailored to the needs of both the crew and passengers and we pay great attention to the small details, something our customers appreciate and value.

With our own 4* hotel within a few minutes walk from our dedicated handling apron, crew can either choose to stay within our crew lounges at the airport or take a day room at the hotel to relax and prepare themselves for their return journey. 

Lunch can easily be arranged for crew members wishing staying at the airport.

From onsite MRO facilities to catering from our hotel, to a spacious and well-equipped hangar, Cranfield Airport delivers the very best in service for its customers.

Due to the small team that operates our handling service, we are very flexible with change of requests at short notice.

Marshalling 940X200

Passengers have often told us that Cranfield is their preferred choice of airport to arrive at due to our friendly, efficient and approachable manner. 

From the moment passengers land, they can be in their car and en-route within minutes.